North Platte, Nebraska
Current Conditions -  °F | °C
As of 1:53 AM on Thursday 27 Nov 2014 (Local Time) from KLBF Reporting Station
Overcast Overcast  
Wind Chill: -8°   Ceiling: 9500
Heat Index: -4°   Visibility: 10mi
Dew Point: -7°   Wind: 6mph
Humidity: 81%   Direction: 170°S
Pressure: 30.34"   Gusts: NA
Location:  41.14°N, 100.76°W
Report Text: KLBF 270753Z AUTO 17005KT 10SM OVC095 M04/M07 A3034 RMK AO2 SLP302 T10441072
Loading
Personal Weather Stations






























Interactive Weather Map New forecast layout! Learn more

10-Day Weather Forecast

Advertisements
Track Severe Weather on mobile